createdAt,value
2018-07-24T00:00:43.256Z,14.60
2018-07-24T00:03:11.023Z,12.43
2018-07-24T00:05:38.811Z,16.05
2018-07-24T00:08:06.581Z,15.65
2018-07-24T00:10:34.338Z,13.83
2018-07-24T00:13:02.217Z,14.93
2018-07-24T00:15:29.987Z,14.13
2018-07-24T00:18:03.863Z,12.35
2018-07-24T00:20:31.641Z,12.53
2018-07-24T00:22:59.474Z,11.28
2018-07-24T00:25:27.186Z,12.15
2018-07-24T00:27:54.964Z,11.03
2018-07-24T00:30:22.845Z,10.85
2018-07-24T00:32:50.550Z,10.95
2018-07-24T00:35:18.289Z,11.22
2018-07-24T00:37:45.994Z,12.53
2018-07-24T00:40:13.673Z,12.30
2018-07-24T00:42:41.459Z,12.85
2018-07-24T00:45:09.205Z,13.25
2018-07-24T00:47:37.123Z,13.18
2018-07-24T00:50:04.978Z,14.13
2018-07-24T00:52:32.865Z,13.50
2018-07-24T00:55:00.445Z,12.28
2018-07-24T00:57:28.178Z,12.37
2018-07-24T00:59:55.924Z,13.40
2018-07-24T01:02:23.850Z,11.73
2018-07-24T01:04:51.610Z,11.88
2018-07-24T01:07:19.385Z,10.95
2018-07-24T01:09:47.134Z,10.03
2018-07-24T01:12:14.949Z,11.33
2018-07-24T01:14:42.868Z,10.82
2018-07-24T01:17:10.569Z,14.23
2018-07-24T01:19:38.432Z,14.18
2018-07-24T01:22:06.323Z,13.88
2018-07-24T01:24:35.366Z,11.90
2018-07-24T01:27:03.332Z,10.20
2018-07-24T01:29:31.158Z,10.48
2018-07-24T01:31:58.971Z,10.68
2018-07-24T01:34:26.638Z,10.30
2018-07-24T01:36:54.455Z,12.15
2018-07-24T01:39:22.268Z,12.20
2018-07-24T01:41:49.958Z,13.50
2018-07-24T01:44:17.773Z,13.28
2018-07-24T01:46:45.698Z,13.65
2018-07-24T01:49:13.433Z,13.20
2018-07-24T01:51:41.149Z,11.85
2018-07-24T01:54:08.905Z,12.45
2018-07-24T01:56:36.642Z,12.05
2018-07-24T01:59:04.606Z,13.05
2018-07-24T02:01:32.306Z,12.45
2018-07-24T02:03:59.909Z,12.03
2018-07-24T02:06:27.579Z,12.18
2018-07-24T02:08:55.305Z,12.98
2018-07-24T02:11:23.126Z,12.53
2018-07-24T02:13:50.867Z,13.53
2018-07-24T02:16:19.185Z,14.13
2018-07-24T02:18:47.154Z,13.72
2018-07-24T02:21:14.825Z,13.65
2018-07-24T02:23:42.565Z,11.95
2018-07-24T02:26:10.292Z,11.43
2018-07-24T02:28:38.045Z,10.78
2018-07-24T02:31:05.846Z,9.48
2018-07-24T02:33:33.554Z,10.68
2018-07-24T02:36:01.633Z,10.20
2018-07-24T02:38:29.349Z,11.30
2018-07-24T02:40:57.099Z,11.27
2018-07-24T02:43:24.857Z,13.83
2018-07-24T02:45:52.583Z,15.05
2018-07-24T02:48:20.385Z,15.85
2018-07-24T02:50:48.120Z,16.27
2018-07-24T02:53:15.851Z,14.80
2018-07-24T02:55:43.619Z,13.35
2018-07-24T02:58:11.356Z,12.85
2018-07-24T03:00:39.151Z,12.68
2018-07-24T03:03:06.990Z,12.37
2018-07-24T03:05:34.669Z,12.60
2018-07-24T03:08:03.049Z,12.90
2018-07-24T03:10:30.777Z,12.37
2018-07-24T03:12:58.428Z,12.80
2018-07-24T03:15:26.188Z,13.80
2018-07-24T03:17:53.836Z,14.73
2018-07-24T03:20:21.545Z,13.70
2018-07-24T03:22:49.242Z,12.47
2018-07-24T03:25:17.091Z,11.63
2018-07-24T03:27:44.846Z,12.23
2018-07-24T03:30:12.597Z,13.00
2018-07-24T03:32:40.212Z,12.68
2018-07-24T03:35:07.954Z,12.28
2018-07-24T03:37:35.572Z,12.85
2018-07-24T03:40:03.422Z,12.98
2018-07-24T03:42:31.126Z,13.85
2018-07-24T03:44:59.115Z,13.60
2018-07-24T03:47:26.777Z,12.58
2018-07-24T03:49:54.534Z,11.97
2018-07-24T03:52:22.968Z,12.63
2018-07-24T03:54:50.688Z,13.35
2018-07-24T03:57:18.383Z,12.88
2018-07-24T03:59:46.098Z,12.25
2018-07-24T04:02:14.280Z,11.83
2018-07-24T04:04:42.016Z,10.85
2018-07-24T04:07:09.779Z,10.25
2018-07-24T04:09:37.908Z,11.03
2018-07-24T04:12:06.794Z,10.93
2018-07-24T04:14:35.866Z,10.68
2018-07-24T04:17:03.689Z,9.78
2018-07-24T04:19:31.281Z,9.33
2018-07-24T04:21:59.025Z,11.43
2018-07-24T04:24:26.807Z,9.87
2018-07-24T04:26:55.439Z,13.18
2018-07-24T04:29:23.278Z,15.93
2018-07-24T04:31:51.008Z,14.43
2018-07-24T04:34:18.583Z,14.07
2018-07-24T04:36:46.174Z,13.30
2018-07-24T04:39:13.953Z,12.70
2018-07-24T04:41:41.690Z,15.78
2018-07-24T04:44:09.357Z,15.53
2018-07-24T04:46:37.128Z,13.50
2018-07-24T04:49:04.998Z,12.43
2018-07-24T04:51:32.810Z,11.80
2018-07-24T04:54:00.634Z,19.07
2018-07-24T04:56:28.326Z,14.40
2018-07-24T04:58:56.037Z,14.53
2018-07-24T05:01:23.872Z,12.98
2018-07-24T05:03:51.505Z,14.03
2018-07-24T05:06:19.178Z,11.95
2018-07-24T05:08:46.834Z,10.90
2018-07-24T05:11:15.022Z,11.43
2018-07-24T05:13:42.677Z,11.55
2018-07-24T05:16:10.346Z,13.40
2018-07-24T05:18:37.969Z,11.85
2018-07-24T05:21:05.844Z,19.50
2018-07-24T05:23:33.545Z,14.90
2018-07-24T05:26:01.207Z,14.87
2018-07-24T05:28:28.883Z,14.70
2018-07-24T05:30:56.653Z,14.10
2018-07-24T05:33:24.351Z,11.63
2018-07-24T05:35:51.998Z,11.37
2018-07-24T05:38:19.767Z,9.25
2018-07-24T05:40:47.484Z,8.15
2018-07-24T05:43:15.765Z,8.73
2018-07-24T05:45:43.530Z,8.68
2018-07-24T05:48:11.167Z,8.43
2018-07-24T05:50:38.753Z,8.28
2018-07-24T05:53:06.524Z,7.33
2018-07-24T05:55:34.188Z,6.95
2018-07-24T05:58:01.826Z,7.50
2018-07-24T06:00:29.564Z,6.95
2018-07-24T06:02:57.291Z,8.48
2018-07-24T06:05:25.015Z,7.37
2018-07-24T06:07:52.790Z,6.37
2018-07-24T06:10:20.434Z,6.87
2018-07-24T06:12:48.138Z,5.87
2018-07-24T06:15:15.877Z,6.95
2018-07-24T06:17:43.614Z,8.13
2018-07-24T06:20:11.561Z,8.20
2018-07-24T06:22:39.213Z,7.28
2018-07-24T06:25:07.261Z,7.70
2018-07-24T06:27:35.673Z,8.58
2018-07-24T06:30:04.541Z,11.50
2018-07-24T06:32:32.250Z,12.25
2018-07-24T06:35:00.086Z,10.60
2018-07-24T06:37:27.822Z,11.60
2018-07-24T06:39:55.517Z,9.93
2018-07-24T06:42:23.356Z,8.90
2018-07-24T06:44:51.013Z,10.75
2018-07-24T06:47:18.865Z,8.00
2018-07-24T06:49:46.615Z,8.75
2018-07-24T06:52:14.318Z,9.48
2018-07-24T06:54:42.035Z,14.45
2018-07-24T06:57:10.043Z,13.98
2018-07-24T06:59:42.009Z,12.80
2018-07-24T07:02:09.786Z,9.48
2018-07-24T07:04:37.471Z,9.33
2018-07-24T07:07:05.362Z,9.30
2018-07-24T07:09:33.035Z,11.70
2018-07-24T07:12:00.739Z,12.15
2018-07-24T07:14:28.441Z,12.40
2018-07-24T07:16:56.190Z,11.45
2018-07-24T07:19:23.917Z,15.90
2018-07-24T07:21:51.606Z,18.75
2018-07-24T07:24:19.310Z,19.25
2018-07-24T07:26:47.178Z,22.22
2018-07-24T07:29:14.899Z,18.48
2018-07-24T07:31:42.586Z,26.00
2018-07-24T07:34:10.253Z,22.77
2018-07-24T07:36:37.850Z,22.17
2018-07-24T07:39:07.825Z,19.95
2018-07-24T07:41:35.474Z,21.15
2018-07-24T07:44:03.267Z,18.50
2018-07-24T07:46:30.984Z,18.55
2018-07-24T07:48:58.682Z,17.25
2018-07-24T07:51:26.504Z,22.73
2018-07-24T07:53:54.162Z,20.40
2018-07-24T07:56:22.038Z,19.48
2018-07-24T07:58:49.743Z,23.20
2018-07-24T08:01:17.464Z,21.52
2018-07-24T08:03:45.222Z,17.77
2018-07-24T08:06:12.763Z,19.85
2018-07-24T08:08:40.467Z,18.87
2018-07-24T08:11:08.198Z,22.35
2018-07-24T08:13:36.144Z,19.98
2018-07-24T08:16:03.849Z,17.98
2018-07-24T08:18:31.503Z,19.23
2018-07-24T08:20:59.211Z,18.27
2018-07-24T08:23:27.145Z,18.52
2018-07-24T08:25:54.822Z,17.92
2018-07-24T08:28:22.567Z,17.00
2018-07-24T08:30:50.634Z,17.73
2018-07-24T08:33:18.258Z,16.62
2018-07-24T08:35:46.164Z,18.32
2018-07-24T08:38:13.809Z,16.65
2018-07-24T08:40:41.491Z,14.63
2018-07-24T08:43:09.171Z,15.32
2018-07-24T08:45:36.938Z,14.87
2018-07-24T08:48:04.759Z,13.58
2018-07-24T08:50:32.394Z,14.40
2018-07-24T08:53:00.176Z,14.68
2018-07-24T08:55:28.009Z,13.70
2018-07-24T08:57:55.463Z,13.22
2018-07-24T09:00:23.163Z,13.15
2018-07-24T09:02:50.793Z,11.60
2018-07-24T09:05:18.484Z,11.57
2018-07-24T09:07:46.252Z,11.12
2018-07-24T09:10:14.633Z,11.00
2018-07-24T09:12:42.305Z,10.53
2018-07-24T09:15:10.131Z,10.98
2018-07-24T09:17:37.834Z,10.88
2018-07-24T09:20:05.536Z,10.85
2018-07-24T09:22:33.279Z,10.85
2018-07-24T09:25:00.955Z,10.00
2018-07-24T09:27:28.574Z,9.35
2018-07-24T09:29:56.299Z,10.08
2018-07-24T09:32:24.007Z,9.95
2018-07-24T09:34:51.696Z,10.10
2018-07-24T09:37:19.373Z,10.00
2018-07-24T09:39:47.158Z,10.10
2018-07-24T09:42:14.813Z,10.63
2018-07-24T09:44:42.490Z,9.63
2018-07-24T09:47:10.173Z,9.33
2018-07-24T09:49:37.842Z,8.58
2018-07-24T09:52:05.405Z,9.23
2018-07-24T09:54:33.130Z,10.00
2018-07-24T09:57:00.826Z,9.93
2018-07-24T09:59:28.588Z,9.28
2018-07-24T10:01:56.189Z,9.23
2018-07-24T10:04:23.861Z,8.55
2018-07-24T10:06:51.574Z,8.53
2018-07-24T10:09:19.223Z,8.30
2018-07-24T10:11:46.928Z,8.80
2018-07-24T10:14:14.586Z,8.25
2018-07-24T10:16:42.346Z,7.35
2018-07-24T10:19:09.906Z,8.70
2018-07-24T10:21:37.617Z,7.75
2018-07-24T10:24:05.393Z,8.48
2018-07-24T10:26:33.054Z,7.80
2018-07-24T10:29:01.194Z,7.60
2018-07-24T10:31:28.893Z,9.30
2018-07-24T10:33:56.558Z,9.50
2018-07-24T10:36:24.338Z,8.13
2018-07-24T10:38:51.997Z,6.50
2018-07-24T10:41:19.688Z,6.87
2018-07-24T10:43:47.669Z,7.80
2018-07-24T10:46:15.375Z,7.45
2018-07-24T10:48:43.080Z,8.48
2018-07-24T10:51:10.788Z,8.25
2018-07-24T10:53:38.504Z,7.55
2018-07-24T10:56:06.461Z,8.00
2018-07-24T10:58:34.337Z,8.10
2018-07-24T11:01:02.040Z,7.70
2018-07-24T11:03:30.024Z,6.50
2018-07-24T11:05:57.771Z,7.53
2018-07-24T11:08:26.693Z,8.05
2018-07-24T11:10:54.519Z,7.75
2018-07-24T11:13:22.321Z,8.60
2018-07-24T11:15:49.956Z,7.33
2018-07-24T11:18:17.686Z,8.15
2018-07-24T11:20:45.366Z,8.03
2018-07-24T11:23:13.189Z,7.08
2018-07-24T11:25:40.859Z,8.98
2018-07-24T11:28:08.704Z,9.20
2018-07-24T11:30:36.428Z,8.65
2018-07-24T11:33:04.188Z,7.45
2018-07-24T11:35:32.079Z,8.20
2018-07-24T11:37:59.749Z,9.28
2018-07-24T11:40:27.567Z,9.38
2018-07-24T11:42:55.505Z,8.68
2018-07-24T11:45:23.337Z,8.98
2018-07-24T11:47:51.079Z,8.93
2018-07-24T11:50:18.772Z,8.23
2018-07-24T11:52:46.499Z,8.30
2018-07-24T11:55:14.133Z,9.18
2018-07-24T11:57:41.965Z,8.58
2018-07-24T12:00:09.775Z,8.40
2018-07-24T12:02:37.451Z,7.67
2018-07-24T12:05:05.316Z,8.38
2018-07-24T12:07:33.034Z,7.58
2018-07-24T12:10:00.605Z,6.47
2018-07-24T12:12:28.490Z,6.55
2018-07-24T12:14:56.273Z,6.05
2018-07-24T12:17:23.989Z,7.40
2018-07-24T12:19:51.856Z,8.00
2018-07-24T12:22:19.984Z,7.97
2018-07-24T12:24:47.745Z,6.95
2018-07-24T12:27:15.499Z,7.72
2018-07-24T12:29:43.232Z,6.87
2018-07-24T12:32:10.981Z,5.92
2018-07-24T12:34:38.707Z,6.97
2018-07-24T12:37:06.426Z,8.30
2018-07-24T12:39:34.099Z,7.50
2018-07-24T12:42:01.799Z,7.22
2018-07-24T12:44:29.739Z,7.73
2018-07-24T12:46:57.434Z,8.03
2018-07-24T12:49:25.105Z,7.72
2018-07-24T12:51:52.843Z,6.50
2018-07-24T12:54:20.601Z,7.80
2018-07-24T12:56:48.262Z,7.97
2018-07-24T12:59:15.825Z,7.60
2018-07-24T13:01:43.500Z,7.65
2018-07-24T13:04:11.205Z,7.90
2018-07-24T13:06:38.901Z,6.53
2018-07-24T13:09:08.531Z,7.30
2018-07-24T13:11:36.230Z,7.80
2018-07-24T13:14:03.988Z,8.23
2018-07-24T13:16:31.681Z,7.20
2018-07-24T13:18:59.379Z,6.90
2018-07-24T13:21:27.094Z,7.08
2018-07-24T13:24:10.052Z,7.60
2018-07-24T13:26:37.966Z,6.73
2018-07-24T13:29:05.702Z,7.10
2018-07-24T13:31:33.398Z,7.37
2018-07-24T13:34:01.156Z,7.87
2018-07-24T13:36:28.972Z,8.30
2018-07-24T13:38:56.649Z,6.92
2018-07-24T13:41:24.748Z,7.28
2018-07-24T13:43:52.478Z,8.13
2018-07-24T13:46:20.279Z,9.28
2018-07-24T13:48:48.035Z,9.15
2018-07-24T13:51:15.609Z,9.75
2018-07-24T13:53:43.345Z,8.90
2018-07-24T13:56:11.048Z,8.85
2018-07-24T13:58:38.869Z,8.53
2018-07-24T14:01:06.848Z,8.03
2018-07-24T14:03:34.829Z,8.55
2018-07-24T14:06:02.595Z,8.83
2018-07-24T14:08:30.364Z,7.58
2018-07-24T14:10:57.946Z,7.62
2018-07-24T14:13:25.590Z,8.55
2018-07-24T14:27:25.665Z,8.03
2018-07-24T14:35:39.994Z,8.15
2018-07-24T14:44:15.874Z,8.43
2018-07-24T14:46:44.885Z,8.65
2018-07-24T14:49:12.661Z,8.20
2018-07-24T14:54:33.310Z,8.45
2018-07-24T14:57:19.520Z,8.58
2018-07-24T15:02:41.963Z,8.60
2018-07-24T15:05:09.968Z,7.60
2018-07-24T15:07:37.866Z,8.35
2018-07-24T15:10:05.604Z,8.65
2018-07-24T15:12:33.387Z,7.90
2018-07-24T15:15:01.436Z,8.25
2018-07-24T15:17:29.202Z,8.95
2018-07-24T15:19:56.859Z,7.45
2018-07-24T15:22:24.853Z,7.62
2018-07-24T15:24:52.397Z,7.80
2018-07-24T15:27:20.381Z,7.87
2018-07-24T15:29:48.008Z,8.45
2018-07-24T15:32:15.767Z,7.40
2018-07-24T15:34:44.570Z,8.08
2018-07-24T15:37:12.223Z,7.13
2018-07-24T15:39:39.962Z,5.83
2018-07-24T15:42:07.674Z,6.72
2018-07-24T15:44:35.477Z,8.20
2018-07-24T15:47:03.244Z,7.78
2018-07-24T15:49:31.026Z,7.45
2018-07-24T15:51:58.786Z,6.25
2018-07-24T15:54:26.516Z,5.58
2018-07-24T15:56:54.275Z,7.22
2018-07-24T15:59:22.070Z,7.90
2018-07-24T16:01:49.868Z,6.92
2018-07-24T16:04:17.521Z,7.50
2018-07-24T16:06:45.354Z,8.35
2018-07-24T16:09:13.521Z,7.87
2018-07-24T16:11:41.354Z,7.42
2018-07-24T16:14:09.419Z,8.63
2018-07-24T16:16:37.600Z,7.25
2018-07-24T16:19:05.495Z,7.33
2018-07-24T16:21:33.182Z,6.67
2018-07-24T16:24:00.846Z,8.03
2018-07-24T16:26:28.560Z,8.43
2018-07-24T16:28:56.354Z,7.87
2018-07-24T16:31:24.101Z,7.83
2018-07-24T16:33:51.833Z,6.85
2018-07-24T16:36:20.788Z,6.70
2018-07-24T16:38:48.543Z,8.20
2018-07-24T16:41:16.281Z,8.35
2018-07-24T16:43:44.395Z,6.75
2018-07-24T16:46:12.143Z,6.40
2018-07-24T16:48:39.957Z,6.60
2018-07-24T16:51:07.727Z,7.28
2018-07-24T16:53:35.474Z,6.90
2018-07-24T16:56:03.205Z,7.05
2018-07-24T16:58:31.023Z,6.47
2018-07-24T17:00:58.781Z,6.12
2018-07-24T17:03:26.626Z,7.65
2018-07-24T17:05:54.355Z,6.65
2018-07-24T17:08:22.251Z,9.30
2018-07-24T17:10:50.116Z,8.43
2018-07-24T17:13:17.842Z,7.78
2018-07-24T17:15:45.496Z,8.20
2018-07-24T17:18:13.179Z,7.40
2018-07-24T17:20:41.045Z,7.45
2018-07-24T17:23:08.796Z,7.20
2018-07-24T17:25:36.529Z,7.42
2018-07-24T17:28:04.338Z,7.47
2018-07-24T17:30:31.873Z,7.17
2018-07-24T17:32:59.560Z,7.92
2018-07-24T17:35:27.232Z,6.83
2018-07-24T17:37:54.975Z,6.40
2018-07-24T17:40:22.808Z,6.42
2018-07-24T17:42:50.596Z,6.10
2018-07-24T17:45:18.298Z,6.60
2018-07-24T17:47:46.075Z,7.20
2018-07-24T17:50:13.797Z,6.87
2018-07-24T17:52:41.526Z,7.90
2018-07-24T17:55:09.385Z,8.85
2018-07-24T17:57:37.733Z,7.87
2018-07-24T18:00:05.511Z,7.62
2018-07-24T18:02:33.460Z,6.65
2018-07-24T18:05:01.542Z,6.45
2018-07-24T18:07:29.410Z,6.12
2018-07-24T18:09:57.089Z,5.08
2018-07-24T18:12:24.972Z,5.17
2018-07-24T18:14:52.816Z,5.17
2018-07-24T18:17:20.590Z,5.87
2018-07-24T18:19:48.325Z,4.80
2018-07-24T18:22:16.045Z,5.55
2018-07-24T18:24:43.732Z,4.10
2018-07-24T18:27:11.473Z,4.75
2018-07-24T18:29:39.322Z,5.25
2018-07-24T18:32:07.457Z,5.40
2018-07-24T18:34:35.173Z,4.62
2018-07-24T18:37:02.917Z,5.97
2018-07-24T18:39:30.693Z,5.92
2018-07-24T18:41:58.334Z,5.00
2018-07-24T18:44:26.114Z,5.42
2018-07-24T18:46:53.867Z,5.50
2018-07-24T18:49:21.562Z,5.30
2018-07-24T18:51:49.316Z,6.20
2018-07-24T18:54:17.153Z,6.78
2018-07-24T18:56:44.854Z,7.47
2018-07-24T18:59:12.582Z,7.28
2018-07-24T19:01:40.267Z,7.97
2018-07-24T19:04:08.011Z,7.00
2018-07-24T19:06:35.671Z,6.97
2018-07-24T19:09:05.297Z,7.25
2018-07-24T19:11:33.044Z,5.85
2018-07-24T19:14:00.811Z,7.62
2018-07-24T19:16:33.989Z,7.42
2018-07-24T19:19:01.895Z,6.95
2018-07-24T19:21:29.659Z,7.85
2018-07-24T19:23:57.380Z,7.80
2018-07-24T19:26:24.984Z,7.45
2018-07-24T19:28:52.822Z,8.00
2018-07-24T19:31:20.669Z,7.25
2018-07-24T19:33:48.333Z,7.20
2018-07-24T19:36:16.110Z,7.40
2018-07-24T19:38:43.975Z,7.60
2018-07-24T19:41:11.717Z,7.28
2018-07-24T19:43:39.489Z,7.65
2018-07-24T19:46:07.192Z,7.70
2018-07-24T19:48:34.830Z,6.55
2018-07-24T19:51:02.593Z,7.08
2018-07-24T19:53:30.249Z,7.70
2018-07-24T19:55:58.038Z,7.87
2018-07-24T19:58:26.441Z,7.55
2018-07-24T20:00:54.282Z,8.18
2018-07-24T20:03:22.037Z,7.58
2018-07-24T20:05:49.673Z,7.47
2018-07-24T20:08:17.333Z,7.62
2018-07-24T20:10:45.079Z,8.15
2018-07-24T20:13:12.789Z,7.75
2018-07-24T20:15:40.935Z,7.67
2018-07-24T20:18:08.797Z,7.22
2018-07-24T20:20:36.494Z,7.90
2018-07-24T20:23:04.238Z,7.75
2018-07-24T20:25:32.664Z,8.50
2018-07-24T20:28:00.328Z,8.00
2018-07-24T20:30:28.141Z,8.33
2018-07-24T20:32:55.878Z,8.18
2018-07-24T20:35:23.732Z,8.63
2018-07-24T20:37:51.424Z,9.20
2018-07-24T20:40:19.231Z,9.13
2018-07-24T20:42:46.946Z,9.30
2018-07-24T20:45:14.624Z,8.50
2018-07-24T20:47:42.331Z,8.90
2018-07-24T20:50:10.010Z,9.95
2018-07-24T20:52:37.740Z,10.93
2018-07-24T20:55:05.445Z,10.35
2018-07-24T20:57:33.862Z,9.20
2018-07-24T21:00:01.694Z,8.85
2018-07-24T21:02:29.358Z,10.03
2018-07-24T21:04:57.144Z,9.50
2018-07-24T21:07:24.943Z,9.25
2018-07-24T21:09:52.551Z,9.20
2018-07-24T21:12:20.289Z,10.15
2018-07-24T21:14:48.065Z,10.05
2018-07-24T21:17:15.797Z,9.73
2018-07-24T21:19:43.674Z,9.83
2018-07-24T21:22:11.525Z,8.80
2018-07-24T21:24:39.225Z,8.50
2018-07-24T21:27:07.027Z,8.30
2018-07-24T21:29:34.753Z,7.65
2018-07-24T21:32:02.719Z,7.95
2018-07-24T21:34:30.471Z,8.53
2018-07-24T21:36:58.178Z,8.37
2018-07-24T21:39:25.864Z,8.88
2018-07-24T21:41:53.680Z,8.45
2018-07-24T21:44:21.447Z,8.48
2018-07-24T21:46:49.155Z,9.03
2018-07-24T21:49:16.908Z,8.55
2018-07-24T21:51:44.457Z,9.83
2018-07-24T21:54:12.186Z,10.93
2018-07-24T21:56:39.982Z,10.25
2018-07-24T21:59:07.905Z,10.53
2018-07-24T22:01:36.497Z,10.00
2018-07-24T22:04:05.311Z,9.65
2018-07-24T22:06:33.936Z,9.10
2018-07-24T22:09:02.673Z,8.98
2018-07-24T22:11:31.132Z,9.30
2018-07-24T22:13:59.720Z,9.73
2018-07-24T22:16:27.438Z,9.10
2018-07-24T22:18:55.208Z,8.05
2018-07-24T22:21:23.062Z,8.55
2018-07-24T22:23:50.842Z,9.28
2018-07-24T22:26:18.764Z,9.25
2018-07-24T22:28:46.569Z,8.93
2018-07-24T22:31:14.386Z,9.73
2018-07-24T22:33:42.225Z,9.33
2018-07-24T22:36:10.166Z,9.93
2018-07-24T22:38:37.954Z,10.53
2018-07-24T22:41:05.677Z,10.03
2018-07-24T22:43:33.472Z,10.80
2018-07-24T22:46:01.908Z,10.55
2018-07-24T22:48:29.670Z,10.28
2018-07-24T22:50:57.415Z,9.50
2018-07-24T22:53:25.128Z,8.80
2018-07-24T22:55:52.890Z,9.90
2018-07-24T22:58:20.602Z,10.88
2018-07-24T23:00:48.269Z,10.50
2018-07-24T23:03:16.045Z,9.40
2018-07-24T23:05:43.800Z,9.58
2018-07-24T23:08:12.196Z,8.60
2018-07-24T23:10:40.005Z,8.55
2018-07-24T23:13:07.690Z,8.75
2018-07-24T23:15:35.431Z,8.90
2018-07-24T23:18:03.130Z,9.30
2018-07-24T23:20:31.546Z,10.05
2018-07-24T23:22:59.224Z,10.43
2018-07-24T23:25:26.916Z,11.50
2018-07-24T23:27:54.666Z,10.58
2018-07-24T23:30:22.445Z,10.65
2018-07-24T23:32:50.278Z,9.98
2018-07-24T23:35:18.050Z,9.78
2018-07-24T23:37:45.745Z,9.53
2018-07-24T23:40:13.654Z,8.43
2018-07-24T23:42:41.269Z,8.70
2018-07-24T23:45:08.942Z,8.08
2018-07-24T23:47:36.633Z,7.70
2018-07-24T23:50:04.866Z,7.47
2018-07-24T23:52:32.694Z,8.40
2018-07-24T23:55:00.387Z,8.65
2018-07-24T23:57:28.090Z,8.63
2018-07-24T23:59:55.949Z,8.10
